Time;durP1;ratioP1;P1;durP2;ratioP2;P2;SDS_P1;SDS_P2;PMS_P1;PMS_P2;Temp;Humidity;BMP_temperature;BMP_pressure;BME280_temperature;BME280_humidity;BME280_pressure;Samples;Min_cycle;Max_cycle;Signal;HPM_P1;HPM_P2
2021/01/17 00:00:06;;;;;;;;;27.00;25.40;;;;;3.28;46.56;98294.06;6184000;28;127132;-57
2021/01/17 00:03:14;;;;;;;;;27.20;24.00;;;;;3.21;46.68;98280.69;6187182;28;125724;-58
2021/01/17 00:06:16;;;;;;;;;31.00;26.40;;;;;3.03;47.02;98272.28;6183312;28;124894;-58
2021/01/17 00:09:17;;;;;;;;;26.60;25.00;;;;;3.24;46.90;98284.78;6183290;28;126449;-57
2021/01/17 00:12:18;;;;;;;;;22.50;21.00;;;;;2.64;47.67;98237.28;6208778;28;124885;-58
2021/01/17 00:15:21;;;;;;;;;25.00;23.40;;;;;2.99;47.72;98284.34;6196584;28;126404;-57
2021/01/17 00:18:22;;;;;;;;;28.20;26.20;;;;;2.96;47.67;98282.88;6183198;28;125263;-57
2021/01/17 00:21:45;;;;;;;;;25.00;25.00;;;;;2.84;47.87;98265.75;6182149;28;125904;-57
2021/01/17 00:24:47;;;;;;;;;29.00;25.00;;;;;2.91;47.92;98276.47;6184784;28;127187;-57
2021/01/17 00:27:51;;;;;;;;;28.00;25.00;;;;;2.82;48.40;98273.09;6206587;28;125087;-57
2021/01/17 00:30:54;;;;;;;;;25.20;23.00;;;;;2.89;47.84;98271.31;6196974;28;127307;-57
2021/01/17 00:33:55;;;;;;;;;25.40;22.60;;;;;2.90;48.56;98277.47;6201910;28;125626;-57
2021/01/17 00:36:57;;;;;;;;;24.67;24.33;;;;;2.90;48.08;98286.28;6178470;28;126585;-57
2021/01/17 00:39:58;;;;;;;;;26.75;24.50;;;;;2.89;48.59;98286.47;6211701;28;125219;-57
2021/01/17 00:43:05;;;;;;;;;25.00;23.00;;;;;2.89;48.58;98283.81;6210872;28;124793;-57
2021/01/17 00:46:07;;;;;;;;;28.00;26.50;;;;;3.21;48.04;98299.34;6200570;28;126568;-56
2021/01/17 00:49:09;;;;;;;;;23.20;21.20;;;;;3.29;48.26;98307.19;6204594;28;125140;-57
2021/01/17 00:52:20;;;;;;;;;28.50;25.50;;;;;3.38;47.97;98300.72;6194078;28;125282;-58
2021/01/17 00:55:26;;;;;;;;;28.00;24.00;;;;;3.26;47.89;98272.97;6185519;28;125240;-57
2021/01/17 00:58:28;;;;;;;;;27.40;24.00;;;;;3.69;47.50;98321.72;6185668;28;126902;-57
2021/01/17 01:01:43;;;;;;;;;29.00;24.00;;;;;3.81;47.40;98322.03;6192035;28;126083;-57
2021/01/17 01:04:46;;;;;;;;;26.80;24.00;;;;;3.85;47.04;98318.78;6187162;28;124308;-57
2021/01/17 01:07:47;;;;;;;;;26.20;23.00;;;;;3.84;46.73;98289.66;6186955;28;125145;-57
2021/01/17 01:10:52;;;;;;;;;24.60;22.60;;;;;3.93;46.67;98297.31;6197516;28;124843;-57
2021/01/17 01:13:54;;;;;;;;;20.60;18.00;;;;;4.14;46.55;98319.63;6211672;28;126323;-57
2021/01/17 01:16:55;;;;;;;;;21.20;19.20;;;;;4.24;46.38;98312.94;6191597;28;125145;-57
2021/01/17 01:19:57;;;;;;;;;23.40;20.00;;;;;4.28;46.32;98314.19;6186764;28;125270;-57
2021/01/17 01:22:58;;;;;;;;;19.00;16.00;;;;;4.32;46.10;98317.28;6168895;28;126305;-58
2021/01/17 01:25:59;;;;;;;;;20.00;17.50;;;;;4.36;45.76;98319.34;6185584;28;129631;-58
2021/01/17 01:29:01;;;;;;;;;15.40;15.00;;;;;3.90;45.77;98241.72;6186685;28;126563;-57
2021/01/17 01:32:02;;;;;;;;;14.00;12.00;;;;;4.34;45.88;98300.06;6152192;28;125470;-57
2021/01/17 01:35:06;;;;;;;;;13.00;12.25;;;;;4.55;45.56;98325.81;6187835;28;126161;-56
2021/01/17 01:38:10;;;;;;;;;14.00;11.60;;;;;4.58;45.19;98328.13;6193396;28;125122;-57
2021/01/17 01:41:12;;;;;;;;;13.50;12.50;;;;;4.59;45.37;98336.94;6187831;28;125529;-57
2021/01/17 01:44:13;;;;;;;;;13.20;12.20;;;;;4.60;45.02;98334.06;6191269;28;125342;-57
2021/01/17 01:47:25;;;;;;;;;10.00;8.25;;;;;4.66;44.84;98335.13;6197261;28;127061;-57
2021/01/17 01:50:26;;;;;;;;;12.00;11.80;;;;;4.36;44.61;98275.81;6186121;28;126120;-57
2021/01/17 01:53:29;;;;;;;;;13.00;11.60;;;;;4.73;44.33;98336.00;6185020;28;125558;-57
2021/01/17 01:56:32;;;;;;;;;13.00;11.00;;;;;4.71;44.37;98343.38;6191361;28;125784;-57
2021/01/17 01:59:33;;;;;;;;;8.00;8.00;;;;;4.66;44.11;98330.63;6209441;28;125056;-57
2021/01/17 02:02:46;;;;;;;;;10.80;9.80;;;;;4.40;43.44;98300.31;6207706;28;126641;-57
2021/01/17 02:05:48;;;;;;;;;9.80;9.20;;;;;4.40;42.88;98324.31;6206144;28;126627;-58
2021/01/17 02:09:24;;;;;;;;;9.60;8.60;;;;;4.58;42.28;98356.66;6183661;28;127013;-58
2021/01/17 02:12:29;;;;;;;;;11.40;10.40;;;;;4.54;42.29;98374.09;6189170;28;126227;-57
2021/01/17 02:15:37;;;;;;;;;9.80;8.80;;;;;4.21;42.04;98323.13;6190730;28;125832;-57
2021/01/17 02:18:41;;;;;;;;;8.00;8.00;;;;;4.46;41.66;98387.56;6208194;28;124897;-57
2021/01/17 02:21:53;;;;;;;;;11.40;10.00;;;;;4.01;41.57;98349.66;6209354;28;126560;-57
2021/01/17 02:25:11;;;;;;;;;11.00;11.00;;;;;4.02;41.27;98361.16;6193210;28;125991;-57
2021/01/17 02:28:18;;;;;;;;;12.60;10.60;;;;;4.21;41.67;98381.84;6216028;28;123939;-57
2021/01/17 02:31:20;;;;;;;;;13.25;13.25;;;;;4.06;42.00;98379.25;6187432;28;124733;-57
2021/01/17 02:34:24;;;;;;;;;13.50;12.50;;;;;3.96;42.48;98384.09;6188369;28;126345;-57
2021/01/17 02:37:41;;;;;;;;;13.40;11.00;;;;;3.82;42.66;98407.16;6197714;28;127723;-57
2021/01/17 02:41:05;;;;;;;;;13.00;12.00;;;;;3.82;42.25;98393.81;6203037;28;127186;-57
2021/01/17 02:44:07;;;;;;;;;14.80;13.40;;;;;3.72;42.30;98406.63;6185110;28;124958;-57
2021/01/17 02:47:08;;;;;;;;;14.00;12.00;;;;;3.64;41.80;98401.44;6185347;28;128199;-57
2021/01/17 02:50:10;;;;;;;;;14.00;13.40;;;;;3.52;41.67;98388.81;6215808;28;125475;-56
2021/01/17 02:53:22;;;;;;;;;16.25;15.25;;;;;3.63;41.22;98421.09;6210067;28;125233;-57
2021/01/17 02:56:28;;;;;;;;;17.00;14.60;;;;;3.55;40.41;98423.06;6206254;28;124504;-57
2021/01/17 02:59:37;;;;;;;;;16.25;14.00;;;;;3.46;39.97;98431.19;6189605;28;127312;-57
2021/01/17 03:02:42;;;;;;;;;16.40;13.40;;;;;3.37;39.53;98428.81;6183771;28;122768;-57
2021/01/17 03:05:46;;;;;;;;;15.00;13.00;;;;;3.25;39.09;98439.13;6186148;28;125309;-58
2021/01/17 03:08:47;;;;;;;;;14.00;13.00;;;;;2.99;38.85;98420.97;6207014;28;127824;-58
2021/01/17 03:11:49;;;;;;;;;14.80;14.20;;;;;2.95;39.06;98427.66;6209661;28;127346;-56
2021/01/17 03:14:52;;;;;;;;;17.80;15.40;;;;;2.67;38.06;98434.66;6205072;28;126730;-57
2021/01/17 03:17:53;;;;;;;;;14.00;13.00;;;;;2.65;36.85;98444.63;6204075;28;125636;-57
2021/01/17 03:20:55;;;;;;;;;14.00;13.00;;;;;2.61;37.21;98462.81;6206817;28;125346;-57
2021/01/17 03:23:56;;;;;;;;;16.20;14.40;;;;;2.48;37.28;98449.31;6209170;28;126657;-57
2021/01/17 03:26:58;;;;;;;;;14.75;13.75;;;;;2.38;36.96;98459.38;6197018;28;125534;-57
2021/01/17 03:29:59;;;;;;;;;14.75;12.75;;;;;2.16;37.30;98449.59;6184150;28;125266;-57
2021/01/17 03:33:01;;;;;;;;;14.00;13.60;;;;;2.11;37.25;98466.06;6180114;28;126229;-57
2021/01/17 03:36:03;;;;;;;;;15.00;14.00;;;;;1.99;37.45;98469.34;6204800;28;124749;-57
2021/01/17 03:39:05;;;;;;;;;16.00;14.00;;;;;1.89;37.46;98469.59;6194532;28;125225;-57
2021/01/17 03:42:06;;;;;;;;;15.00;13.50;;;;;1.51;37.61;98436.78;6195374;28;127606;-57
2021/01/17 03:45:08;;;;;;;;;15.00;13.40;;;;;1.64;37.60;98481.38;6208993;28;126268;-57
2021/01/17 03:48:09;;;;;;;;;11.00;10.00;;;;;1.56;37.31;98486.75;6187054;28;126723;-57
2021/01/17 03:51:11;;;;;;;;;15.40;14.00;;;;;1.44;37.56;98478.31;6182651;28;126755;-57
2021/01/17 03:54:12;;;;;;;;;15.40;14.40;;;;;1.41;37.16;98480.50;6187432;28;125176;-57
2021/01/17 03:57:13;;;;;;;;;13.25;12.75;;;;;1.39;37.32;98487.81;6185988;28;128183;-57
2021/01/17 04:00:15;;;;;;;;;15.40;14.00;;;;;1.16;37.36;98466.50;6189950;28;125246;-57
2021/01/17 04:03:17;;;;;;;;;13.80;11.80;;;;;1.19;37.23;98487.38;6200751;28;126370;-57
2021/01/17 04:06:18;;;;;;;;;16.25;14.00;;;;;1.12;37.38;98499.72;6220290;27;127198;-57
2021/01/17 04:09:20;;;;;;;;;14.75;13.00;;;;;0.95;37.47;98501.56;6202106;28;126998;-57
2021/01/17 04:12:21;;;;;;;;;14.00;13.00;;;;;0.72;37.14;98484.72;6206467;28;124218;-57
2021/01/17 04:15:23;;;;;;;;;14.00;11.80;;;;;0.75;37.31;98495.00;6206485;28;126487;-57
2021/01/17 04:18:24;;;;;;;;;13.00;12.40;;;;;0.70;37.29;98511.41;6190962;28;125472;-56
2021/01/17 04:21:26;;;;;;;;;14.00;11.00;;;;;0.60;37.62;98505.47;6208248;28;124689;-57
2021/01/17 04:24:27;;;;;;;;;13.67;11.67;;;;;0.50;37.62;98504.81;6205768;28;125553;-57
2021/01/17 04:27:29;;;;;;;;;14.00;12.80;;;;;0.46;38.03;98522.06;6198656;28;126736;-57
2021/01/17 04:30:34;;;;;;;;;13.25;12.25;;;;;0.42;37.80;98520.72;6184506;28;126348;-57
2021/01/17 04:33:35;;;;;;;;;13.20;11.60;;;;;0.36;37.82;98555.88;6176951;28;125790;-57
2021/01/17 04:36:37;;;;;;;;;13.25;11.25;;;;;0.34;38.27;98534.81;6199114;28;125472;-57
2021/01/17 04:39:39;;;;;;;;;14.00;13.40;;;;;0.31;37.82;98531.66;6203977;28;124781;-57
2021/01/17 04:42:46;;;;;;;;;16.60;15.00;;;;;0.16;38.55;98528.84;6208111;28;126417;-57
2021/01/17 04:45:51;;;;;;;;;14.20;13.80;;;;;0.27;39.02;98555.03;6208253;28;125294;-57
2021/01/17 04:49:01;;;;;;;;;9.20;8.40;;;;;0.24;39.23;98549.25;6191655;28;125686;-57
2021/01/17 04:52:07;;;;;;;;;14.00;12.60;;;;;0.25;39.26;98551.69;6183287;28;126464;-56
2021/01/17 04:55:09;;;;;;;;;13.75;11.75;;;;;0.17;38.71;98534.97;6203620;28;125857;-57
2021/01/17 04:58:17;;;;;;;;;14.00;12.20;;;;;0.35;38.79;98564.81;6198472;28;126923;-57
2021/01/17 05:01:37;;;;;;;;;15.80;14.00;;;;;0.45;38.94;98570.78;6196984;28;125998;-56
2021/01/17 05:05:06;;;;;;;;;17.00;13.00;;;;;0.48;38.81;98566.97;6221500;28;125631;-58
2021/01/17 05:08:25;;;;;;;;;15.60;15.00;;;;;0.34;38.31;98566.63;6193596;28;125015;-57
2021/01/17 05:11:39;;;;;;;;;16.40;14.40;;;;;0.20;38.95;98543.41;6200507;28;126089;-57
2021/01/17 05:14:43;;;;;;;;;16.00;14.00;;;;;0.35;38.97;98580.72;6183136;28;124773;-57
2021/01/17 05:17:45;;;;;;;;;13.75;13.00;;;;;0.10;39.02;98534.00;6203628;28;125411;-57
2021/01/17 05:20:46;;;;;;;;;20.00;17.00;;;;;0.34;38.48;98579.88;6208428;28;125201;-57
2021/01/17 05:23:48;;;;;;;;;15.00;14.00;;;;;0.37;38.73;98590.19;6185484;28;126057;-58
2021/01/17 05:26:51;;;;;;;;;19.00;17.60;;;;;0.40;38.66;98596.97;6208658;28;127291;-57
2021/01/17 05:29:52;;;;;;;;;18.40;16.00;;;;;0.43;38.80;98604.59;6185665;28;124743;-57
2021/01/17 05:32:54;;;;;;;;;20.40;18.40;;;;;0.38;39.02;98601.63;6208927;28;125051;-57
2021/01/17 05:35:58;;;;;;;;;14.20;13.20;;;;;0.23;38.99;98577.56;6211157;28;127104;-57
2021/01/17 05:39:01;;;;;;;;;20.00;17.00;;;;;0.41;38.71;98611.88;6210606;28;126856;-57
2021/01/17 05:42:07;;;;;;;;;18.00;16.60;;;;;0.38;38.95;98615.72;6186374;28;126587;-57
2021/01/17 05:45:17;;;;;;;;;18.80;17.00;;;;;0.19;38.93;98576.25;6186836;28;124700;-57
2021/01/17 05:48:19;;;;;;;;;19.00;17.00;;;;;0.44;38.88;98622.97;6198157;28;126145;-56
2021/01/17 05:51:27;;;;;;;;;21.00;19.00;;;;;0.35;38.79;98609.88;6194234;28;127539;-57
2021/01/17 05:54:29;;;;;;;;;16.00;16.00;;;;;0.50;38.75;98631.28;6209973;28;126521;-57
2021/01/17 05:57:32;;;;;;;;;18.00;18.00;;;;;0.57;38.60;98632.28;6210597;28;125087;-56
2021/01/17 06:00:34;;;;;;;;;25.40;20.40;;;;;0.52;38.26;98630.13;6205465;28;124208;-57
2021/01/17 06:03:36;;;;;;;;;19.00;18.00;;;;;0.49;38.37;98645.56;6186199;28;126650;-57
2021/01/17 06:06:38;;;;;;;;;23.80;21.40;;;;;0.26;38.47;98605.56;6194329;28;125341;-57
2021/01/17 06:09:42;;;;;;;;;21.00;18.40;;;;;0.46;38.75;98644.03;6188312;28;126629;-57
2021/01/17 06:12:50;;;;;;;;;21.00;19.40;;;;;0.48;38.39;98646.53;6185369;28;126548;-56
2021/01/17 06:15:54;;;;;;;;;22.60;20.00;;;;;0.52;38.48;98653.16;6184851;28;124702;-57
2021/01/17 06:19:04;;;;;;;;;23.40;20.60;;;;;0.49;38.39;98651.66;6190902;28;126727;-58
2021/01/17 06:22:07;;;;;;;;;23.67;21.67;;;;;0.27;38.38;98631.91;6197300;28;126441;-56
2021/01/17 06:25:10;;;;;;;;;22.00;21.00;;;;;0.41;38.45;98655.16;6201281;28;126398;-57
2021/01/17 06:28:14;;;;;;;;;20.00;17.00;;;;;0.23;38.89;98635.06;6192062;28;126678;-57
2021/01/17 06:31:20;;;;;;;;;21.00;19.00;;;;;0.40;38.71;98668.56;6188075;28;123829;-56
2021/01/17 06:34:22;;;;;;;;;20.00;18.00;;;;;0.40;38.59;98669.38;6210157;28;124011;-57
2021/01/17 06:37:28;;;;;;;;;24.80;20.40;;;;;0.40;38.67;98671.22;6189965;28;126858;-57
2021/01/17 06:40:31;;;;;;;;;23.00;21.00;;;;;0.38;38.65;98675.88;6190224;28;126468;-57
2021/01/17 06:43:39;;;;;;;;;21.80;18.60;;;;;0.31;38.08;98664.22;6197863;28;125060;-56
2021/01/17 06:46:45;;;;;;;;;23.00;21.40;;;;;0.34;38.26;98688.59;6196464;28;124898;-57
2021/01/17 06:49:48;;;;;;;;;19.20;17.20;;;;;0.33;38.95;98686.13;6187143;28;124535;-57
2021/01/17 06:52:55;;;;;;;;;22.20;21.00;;;;;0.31;38.62;98688.09;6209460;28;127439;-57
2021/01/17 06:56:19;;;;;;;;;24.25;21.25;;;;;0.33;38.89;98694.91;6200108;28;125923;-57
2021/01/17 06:59:38;;;;;;;;;24.80;23.20;;;;;0.25;38.86;98683.44;6188690;28;128158;-57
2021/01/17 07:02:50;;;;;;;;;26.00;22.75;;;;;0.40;38.70;98700.38;6183429;28;124715;-57
2021/01/17 07:06:20;;;;;;;;;25.00;23.00;;;;;0.40;38.46;98711.81;6172296;28;124799;-57
2021/01/17 07:09:46;;;;;;;;;24.00;20.20;;;;;0.27;38.78;98698.19;6203499;28;127032;-57
2021/01/17 07:12:58;;;;;;;;;22.20;20.60;;;;;0.44;38.40;98734.38;6188962;28;125953;-57
2021/01/17 07:16:03;;;;;;;;;26.60;24.00;;;;;0.29;38.38;98698.06;6199301;28;126094;-57
2021/01/17 07:19:07;;;;;;;;;25.00;23.00;;;;;0.57;37.93;98723.31;6183498;28;127901;-57
2021/01/17 07:22:08;;;;;;;;;27.50;25.00;;;;;0.63;37.89;98712.06;6187669;28;127040;-57
2021/01/17 07:25:12;;;;;;;;;25.00;21.00;;;;;0.74;37.85;98718.84;6195360;28;125920;-57
2021/01/17 07:28:18;;;;;;;;;25.40;22.40;;;;;1.01;38.03;98746.94;6197134;28;125050;-57
2021/01/17 07:31:30;;;;;;;;;21.60;20.00;;;;;0.81;37.48;98682.72;6203948;28;127031;-56
2021/01/17 07:34:39;;;;;;;;;26.00;23.60;;;;;1.23;37.12;98717.06;6209755;28;124896;-57
2021/01/17 07:37:43;;;;;;;;;24.00;21.00;;;;;1.82;36.78;98758.31;6188569;28;126899;-57
2021/01/17 07:40:53;;;;;;;;;26.60;24.60;;;;;2.00;36.45;98740.34;6205900;28;124909;-57
2021/01/17 07:43:59;;;;;;;;;26.00;24.00;;;;;2.50;35.46;98765.75;6193165;28;124945;-57
2021/01/17 07:47:05;;;;;;;;;26.75;23.50;;;;;2.65;35.66;98763.19;6198606;28;128580;-57
2021/01/17 07:50:08;;;;;;;;;23.00;21.00;;;;;2.83;35.69;98771.75;6188904;28;125730;-57
2021/01/17 07:53:31;;;;;;;;;28.20;26.00;;;;;3.07;34.96;98771.59;6211677;27;124328;-57
2021/01/17 07:56:37;;;;;;;;;27.00;24.40;;;;;3.11;34.50;98732.94;6195148;28;125940;-57
2021/01/17 07:59:39;;;;;;;;;26.00;21.00;;;;;3.58;34.12;98769.19;6226980;28;123980;-58
2021/01/17 08:02:49;;;;;;;;;24.00;21.00;;;;;3.55;34.55;98749.06;6194817;27;124847;-57
2021/01/17 08:05:53;;;;;;;;;26.40;22.40;;;;;3.57;34.19;98776.34;6192639;28;123968;-57
2021/01/17 08:08:54;;;;;;;;;26.60;25.00;;;;;3.55;33.16;98761.56;6185406;28;128100;-59
2021/01/17 08:11:57;;;;;;;;;24.25;20.25;;;;;3.59;32.60;98750.34;6210585;28;126560;-58
2021/01/17 08:15:22;;;;;;;;;25.00;21.75;;;;;4.54;32.06;98775.34;6219799;28;126013;-58
2021/01/17 08:18:33;;;;;;;;;27.20;24.20;;;;;4.46;31.66;98778.09;6209698;27;125971;-59
2021/01/17 08:21:35;;;;;;;;;27.50;24.00;;;;;4.32;31.81;98779.75;6226360;28;126192;-58
2021/01/17 08:24:39;;;;;;;;;29.75;26.00;;;;;4.29;31.63;98750.78;6215622;28;126042;-59
2021/01/17 08:27:42;;;;;;;;;27.25;25.00;;;;;5.04;30.90;98749.59;6223386;28;126702;-59
2021/01/17 08:30:44;;;;;;;;;29.20;27.60;;;;;5.83;29.48;98783.25;6220358;28;124387;-59
2021/01/17 08:34:07;;;;;;;;;28.00;26.25;;;;;6.22;28.61;98780.06;6201633;28;126712;-59
2021/01/17 08:37:16;;;;;;;;;29.20;26.80;;;;;6.34;28.83;98793.72;6204460;27;126031;-59
2021/01/17 08:40:19;;;;;;;;;28.00;23.40;;;;;6.15;28.41;98795.25;6215337;27;124839;-60
2021/01/17 08:43:31;;;;;;;;;26.00;24.00;;;;;5.83;28.68;98795.78;6219655;28;126920;-59
2021/01/17 08:46:37;;;;;;;;;27.20;25.00;;;;;5.95;28.69;98813.84;6195333;28;125932;-59
2021/01/17 08:49:39;;;;;;;;;26.60;24.60;;;;;6.13;28.55;98793.78;6187843;28;127044;-59
2021/01/17 08:52:40;;;;;;;;;27.20;25.00;;;;;5.62;29.10;98793.94;6228120;27;125747;-58
2021/01/17 08:55:47;;;;;;;;;31.00;27.60;;;;;5.27;29.17;98829.63;6226332;28;126120;-59
2021/01/17 08:58:50;;;;;;;;;27.20;23.40;;;;;4.84;30.14;98842.88;6202063;28;126414;-58
2021/01/17 09:01:59;;;;;;;;;30.20;28.00;;;;;4.56;30.58;98839.22;6207021;28;127073;-59
2021/01/17 09:05:01;;;;;;;;;28.20;26.60;;;;;4.26;30.63;98841.88;6216332;27;126517;-59
2021/01/17 09:08:05;;;;;;;;;27.25;25.00;;;;;4.01;31.59;98850.31;6198029;27;126729;-58
2021/01/17 09:11:29;;;;;;;;;32.50;28.50;;;;;3.73;31.30;98855.38;6225632;28;126520;-59
2021/01/17 09:14:30;;;;;;;;;33.80;30.40;;;;;3.43;31.59;98841.94;6221396;27;126062;-59
2021/01/17 09:17:32;;;;;;;;;32.00;28.40;;;;;3.35;32.19;98860.66;6212102;28;125312;-58
2021/01/17 09:20:34;;;;;;;;;30.00;28.00;;;;;3.03;32.21;98842.16;6217022;28;125159;-58
2021/01/17 09:23:37;;;;;;;;;32.00;29.00;;;;;3.10;32.32;98877.78;6224249;28;125557;-59
2021/01/17 09:26:41;;;;;;;;;33.00;27.00;;;;;3.04;33.31;98881.13;6213595;28;124010;-59
2021/01/17 09:29:45;;;;;;;;;31.00;26.60;;;;;3.07;32.45;98879.97;6219714;28;125812;-60
2021/01/17 09:32:47;;;;;;;;;31.50;27.50;;;;;3.00;33.21;98877.16;6204693;27;127130;-59
2021/01/17 09:35:49;;;;;;;;;34.25;30.00;;;;;2.97;33.03;98878.34;6206614;27;126123;-58
2021/01/17 09:38:51;;;;;;;;;33.80;30.00;;;;;2.91;32.69;98873.69;6192997;28;123837;-59
2021/01/17 09:41:53;;;;;;;;;34.00;30.00;;;;;2.74;32.71;98858.78;6227763;27;126972;-59
2021/01/17 09:44:58;;;;;;;;;30.25;26.00;;;;;2.87;32.92;98876.88;6226267;28;124511;-58
2021/01/17 09:48:16;;;;;;;;;30.60;27.80;;;;;2.70;32.58;98888.59;6223898;28;124592;-59
2021/01/17 09:51:20;;;;;;;;;34.00;30.00;;;;;2.52;33.44;98879.00;6220509;27;125854;-58
2021/01/17 09:54:22;;;;;;;;;29.00;26.60;;;;;2.49;33.52;98895.28;6219847;28;124667;-59
2021/01/17 09:57:27;;;;;;;;;33.40;28.60;;;;;2.50;33.76;98890.81;6223725;28;124849;-59
2021/01/17 10:00:29;;;;;;;;;30.25;25.25;;;;;2.34;33.84;98898.84;6209343;28;125358;-59
2021/01/17 10:03:33;;;;;;;;;31.00;26.50;;;;;1.94;34.13;98879.28;6220245;28;127148;-59
2021/01/17 10:06:34;;;;;;;;;33.80;27.80;;;;;1.60;34.22;98852.03;6214829;27;125771;-59
2021/01/17 10:09:36;;;;;;;;;33.50;31.50;;;;;1.74;35.33;98900.03;6216131;28;125260;-58
2021/01/17 10:12:37;;;;;;;;;30.25;26.50;;;;;1.59;35.02;98892.88;6218035;28;126515;-59
2021/01/17 10:15:42;;;;;;;;;37.40;31.60;;;;;1.66;35.13;98901.88;6227117;28;127433;-59
2021/01/17 10:18:44;;;;;;;;;35.00;30.25;;;;;1.50;35.30;98889.41;6192188;28;126529;-59
2021/01/17 10:21:46;;;;;;;;;30.50;27.25;;;;;1.46;35.29;98903.16;6213530;28;123877;-58
2021/01/17 10:24:47;;;;;;;;;34.60;30.00;;;;;1.15;35.54;98874.56;6209793;28;125255;-59
2021/01/17 10:27:49;;;;;;;;;29.60;26.60;;;;;1.03;35.40;98885.63;6210365;28;125335;-59
2021/01/17 10:30:59;;;;;;;;;37.00;31.40;;;;;1.23;35.36;98916.22;6209245;28;126814;-59
2021/01/17 10:34:03;;;;;;;;;31.60;28.00;;;;;1.15;35.72;98918.84;6229919;27;124398;-58
2021/01/17 10:37:10;;;;;;;;;30.80;29.40;;;;;1.15;35.75;98914.38;6216505;28;124795;-58
2021/01/17 10:40:29;;;;;;;;;31.80;28.80;;;;;1.14;35.98;98915.38;6203573;27;124604;-58
2021/01/17 10:43:35;;;;;;;;;30.00;28.75;;;;;1.26;36.14;98923.88;6213067;28;127441;-58
2021/01/17 10:46:44;;;;;;;;;31.00;28.00;;;;;1.46;35.77;98927.09;6233403;27;126374;-58
2021/01/17 10:49:46;;;;;;;;;32.40;28.40;;;;;1.73;34.80;98919.63;6217688;27;124484;-58
2021/01/17 10:52:59;;;;;;;;;29.00;24.60;;;;;1.97;34.78;98925.97;6217578;27;125192;-58
2021/01/17 10:56:00;;;;;;;;;34.50;28.50;;;;;2.23;34.43;98923.13;6186829;28;123484;-59
2021/01/17 10:59:26;;;;;;;;;29.40;26.00;;;;;2.54;34.31;98929.41;6181565;28;126698;-58
2021/01/17 11:02:28;;;;;;;;;33.50;30.00;;;;;2.84;33.81;98919.81;6221675;28;124920;-58
2021/01/17 11:05:29;;;;;;;;;33.00;28.00;;;;;3.32;33.95;98927.59;6217873;28;126552;-59
2021/01/17 11:08:34;;;;;;;;;35.75;30.75;;;;;3.64;32.97;98941.75;6219916;27;126032;-59
2021/01/17 11:11:45;;;;;;;;;30.75;28.00;;;;;3.57;32.36;98885.63;6223722;28;124685;-58
2021/01/17 11:14:46;;;;;;;;;32.00;28.00;;;;;3.93;32.38;98929.38;6198092;28;124943;-58
2021/01/17 11:17:53;;;;;;;;;32.00;29.50;;;;;3.75;32.08;98920.84;6216338;28;126520;-58
2021/01/17 11:20:59;;;;;;;;;33.40;30.00;;;;;3.86;32.76;98924.94;6208012;28;127449;-58
2021/01/17 11:24:01;;;;;;;;;32.00;30.00;;;;;3.83;32.77;98919.94;6224361;28;126873;-58
2021/01/17 11:27:14;;;;;;;;;37.80;32.40;;;;;3.82;32.39;98912.97;6210653;28;126227;-58
2021/01/17 11:30:16;;;;;;;;;35.60;30.60;;;;;3.79;32.84;98921.31;6221273;27;125265;-59
2021/01/17 11:33:17;;;;;;;;;37.60;31.00;;;;;3.71;32.27;98906.22;6223577;28;127564;-59
2021/01/17 11:36:22;;;;;;;;;40.40;33.00;;;;;3.82;32.33;98924.44;6206682;28;126527;-58
2021/01/17 11:39:23;;;;;;;;;34.75;29.25;;;;;3.81;31.75;98914.00;6225472;28;124831;-58
2021/01/17 11:42:24;;;;;;;;;29.50;28.00;;;;;3.69;31.52;98902.06;6221638;28;127473;-58
2021/01/17 11:45:26;;;;;;;;;34.40;31.60;;;;;3.47;31.19;98853.06;6216371;28;97339;-58
2021/01/17 11:48:31;;;;;;;;;33.00;30.00;;;;;3.77;30.65;98916.16;6219634;27;127536;-58
2021/01/17 11:51:34;;;;;;;;;33.25;30.25;;;;;3.51;30.61;98906.84;6224520;28;126338;-58
2021/01/17 11:54:43;;;;;;;;;30.80;29.00;;;;;2.58;31.58;98785.19;6223707;28;125709;-58
2021/01/17 11:57:44;;;;;;;;;35.40;31.40;;;;;3.37;31.90;98917.25;6216413;27;125506;-59
2021/01/17 12:01:00;;;;;;;;;35.20;32.00;;;;;3.35;32.16;98913.94;6215741;27;126757;-58
2021/01/17 12:04:08;;;;;;;;;29.20;27.00;;;;;3.30;32.15;98910.97;6202412;28;126089;-58
2021/01/17 12:07:09;;;;;;;;;29.60;28.20;;;;;3.19;31.72;98913.19;6200517;28;125296;-58
2021/01/17 12:10:11;;;;;;;;;33.00;28.00;;;;;3.21;31.63;98928.00;6195264;28;125796;-58
2021/01/17 12:13:12;;;;;;;;;33.00;27.20;;;;;3.22;32.44;98924.34;6210452;28;125762;-58
2021/01/17 12:16:35;;;;;;;;;28.00;25.00;;;;;3.15;31.98;98925.19;6219458;27;125655;-57
2021/01/17 12:19:38;;;;;;;;;26.50;23.50;;;;;3.10;32.23;98922.22;6202923;28;126070;-59
2021/01/17 12:22:39;;;;;;;;;27.80;24.00;;;;;3.07;32.38;98912.75;6195334;28;124369;-58
2021/01/17 12:25:41;;;;;;;;;27.80;26.00;;;;;2.87;32.35;98912.34;6206331;28;125290;-58
2021/01/17 12:28:42;;;;;;;;;26.00;23.00;;;;;2.55;32.23;98876.00;6208431;28;126516;-61
2021/01/17 12:31:45;;;;;;;;;28.00;25.40;;;;;2.81;32.07;98930.81;6196109;28;126438;-59
2021/01/17 12:34:46;;;;;;;;;30.80;26.40;;;;;2.50;32.66;98886.31;6210161;28;126091;-59
2021/01/17 12:37:48;;;;;;;;;29.60;26.60;;;;;2.80;32.70;98942.47;6224684;27;125239;-59
2021/01/17 12:40:49;;;;;;;;;31.60;27.60;;;;;2.48;33.23;98901.66;6213634;28;125085;-58
2021/01/17 12:43:50;;;;;;;;;24.25;23.00;;;;;2.75;32.25;98944.81;6215503;28;126930;-59
2021/01/17 12:46:52;;;;;;;;;25.00;24.00;;;;;2.63;31.89;98938.19;6225369;27;126045;-58
2021/01/17 12:49:53;;;;;;;;;21.00;19.00;;;;;2.31;32.26;98896.50;6225008;27;125690;-58
2021/01/17 12:52:55;;;;;;;;;25.00;20.00;;;;;2.30;31.35;98919.63;6210767;28;126599;-58
2021/01/17 12:55:56;;;;;;;;;20.75;17.75;;;;;2.27;31.57;98921.78;6207896;27;126006;-58
2021/01/17 12:58:58;;;;;;;;;25.40;24.00;;;;;2.52;32.07;98966.00;6191095;28;127817;-59
2021/01/17 13:02:05;;;;;;;;;28.00;23.00;;;;;2.26;32.14;98939.56;6230818;27;127520;-59
2021/01/17 13:05:07;;;;;;;;;24.00;22.00;;;;;2.41;32.48;98971.66;6203796;28;125975;-58
2021/01/17 13:08:09;;;;;;;;;28.00;25.00;;;;;2.37;32.43;98973.00;6205931;28;126488;-58
2021/01/17 13:11:13;;;;;;;;;30.40;28.20;;;;;2.39;33.72;98979.81;6217886;27;123485;-58
2021/01/17 13:14:15;;;;;;;;;41.20;31.60;;;;;2.40;34.50;98981.47;6220792;28;125917;-59
2021/01/17 13:17:16;;;;;;;;;34.50;30.50;;;;;2.37;34.54;98992.44;6223536;28;128117;-59
2021/01/17 13:20:20;;;;;;;;;33.60;30.40;;;;;2.44;33.38;98992.63;6213859;27;124791;-60
2021/01/17 13:23:21;;;;;;;;;26.33;24.33;;;;;2.30;32.29;98959.50;6221748;28;127411;-59
2021/01/17 13:26:23;;;;;;;;;28.00;25.00;;;;;2.34;32.27;98991.97;6223034;28;125313;-59
2021/01/17 13:29:24;;;;;;;;;26.60;25.60;;;;;1.93;32.47;98928.13;6218458;27;126750;-59
2021/01/17 13:32:25;;;;;;;;;32.60;28.60;;;;;2.31;33.64;98984.28;6221215;27;127408;-58
2021/01/17 13:35:28;;;;;;;;;37.25;30.00;;;;;2.34;34.24;98995.47;6225193;28;125109;-58
2021/01/17 13:38:30;;;;;;;;;34.00;30.00;;;;;2.22;33.79;98975.50;6221503;28;126784;-58
2021/01/17 13:41:31;;;;;;;;;26.00;23.00;;;;;2.37;31.99;98988.94;6226578;27;126642;-58
2021/01/17 13:44:33;;;;;;;;;27.00;22.80;;;;;2.37;31.82;98992.44;6221259;28;125387;-58
2021/01/17 13:47:39;;;;;;;;;24.00;19.50;;;;;2.05;31.70;98952.56;6218711;27;126894;-58
2021/01/17 13:50:41;;;;;;;;;28.00;24.25;;;;;2.34;31.64;99006.09;6207758;27;124785;-59
2021/01/17 13:53:42;;;;;;;;;29.50;28.00;;;;;2.08;31.77;98970.84;6217520;28;127727;-59
2021/01/17 13:56:44;;;;;;;;;24.00;19.50;;;;;2.34;31.70;99011.41;6218206;28;124951;-59
2021/01/17 13:59:49;;;;;;;;;26.00;23.00;;;;;2.24;30.78;98994.78;6202362;28;125024;-57
2021/01/17 14:02:51;;;;;;;;;28.50;24.50;;;;;2.30;32.03;99007.41;6215669;28;126104;-61
2021/01/17 14:05:54;;;;;;;;;28.60;26.00;;;;;2.36;31.72;99019.22;6224202;28;125127;-59
2021/01/17 14:08:55;;;;;;;;;26.00;22.00;;;;;2.27;31.83;99017.53;6210544;28;127290;-58